createdAt,value
2018-06-30T00:02:20.329Z,13.08
2018-06-30T00:04:53.393Z,14.07
2018-06-30T00:07:23.539Z,14.87
2018-06-30T00:09:52.753Z,14.38
2018-06-30T00:12:21.986Z,13.13
2018-06-30T00:14:54.894Z,13.45
2018-06-30T00:17:24.371Z,13.00
2018-06-30T00:19:53.708Z,13.45
2018-06-30T00:22:22.890Z,12.50
2018-06-30T00:24:52.314Z,13.65
2018-06-30T00:27:26.797Z,14.28
2018-06-30T00:29:56.346Z,13.15
2018-06-30T00:32:25.555Z,13.30
2018-06-30T00:35:00.293Z,13.20
2018-06-30T00:37:29.670Z,12.65
2018-06-30T00:39:58.840Z,13.80
2018-06-30T00:42:28.038Z,14.35
2018-06-30T00:44:57.675Z,14.65
2018-06-30T00:47:26.886Z,13.22
2018-06-30T00:49:56.091Z,12.45
2018-06-30T00:52:25.284Z,12.80
2018-06-30T00:54:54.550Z,14.53
2018-06-30T00:57:23.822Z,14.60
2018-06-30T00:59:53.023Z,13.43
2018-06-30T01:02:22.222Z,14.60
2018-06-30T01:04:52.398Z,13.53
2018-06-30T01:07:21.643Z,14.87
2018-06-30T01:09:50.822Z,12.43
2018-06-30T01:12:20.038Z,13.22
2018-06-30T01:14:49.370Z,14.25
2018-06-30T01:17:18.916Z,14.18
2018-06-30T01:19:56.646Z,13.00
2018-06-30T01:22:25.852Z,12.50
2018-06-30T01:24:55.880Z,12.33
2018-06-30T01:27:25.077Z,14.65
2018-06-30T01:29:54.278Z,14.38
2018-06-30T01:32:23.472Z,13.32
2018-06-30T01:34:52.753Z,13.48
2018-06-30T01:37:22.013Z,13.85
2018-06-30T01:39:51.439Z,14.50
2018-06-30T01:42:20.729Z,13.75
2018-06-30T01:44:51.019Z,14.63
2018-06-30T01:47:20.257Z,12.88
2018-06-30T01:49:49.417Z,12.82
2018-06-30T01:52:18.977Z,14.70
2018-06-30T01:54:48.219Z,14.87
2018-06-30T01:57:17.758Z,12.43
2018-06-30T01:59:46.932Z,12.25
2018-06-30T02:02:17.699Z,13.45
2018-06-30T02:04:47.031Z,13.05
2018-06-30T02:07:16.192Z,13.28
2018-06-30T02:09:45.405Z,12.63
2018-06-30T02:12:14.565Z,13.80
2018-06-30T02:14:45.537Z,14.70
2018-06-30T02:17:15.971Z,13.90
2018-06-30T02:19:45.140Z,13.28
2018-06-30T02:22:14.302Z,13.72
2018-06-30T02:24:43.477Z,14.20
2018-06-30T02:27:12.664Z,12.75
2018-06-30T02:29:41.867Z,12.75
2018-06-30T02:32:12.005Z,14.25
2018-06-30T02:34:41.309Z,12.37
2018-06-30T02:37:10.482Z,13.58
2018-06-30T02:39:39.749Z,13.28
2018-06-30T02:42:09.117Z,13.20
2018-06-30T02:44:38.660Z,13.08
2018-06-30T02:47:07.835Z,13.10
2018-06-30T02:49:37.149Z,14.07
2018-06-30T02:52:06.637Z,13.35
2018-06-30T02:54:36.138Z,13.08
2018-06-30T02:57:05.391Z,13.30
2018-06-30T02:59:34.562Z,13.88
2018-06-30T03:02:03.879Z,12.45
2018-06-30T03:04:36.591Z,17.75
2018-06-30T03:07:05.784Z,13.98
2018-06-30T03:09:35.365Z,13.72
2018-06-30T03:12:04.618Z,14.78
2018-06-30T03:14:34.293Z,16.05
2018-06-30T03:17:03.476Z,15.35
2018-06-30T03:19:32.589Z,13.88
2018-06-30T03:22:01.816Z,14.30
2018-06-30T03:24:33.024Z,12.88
2018-06-30T03:27:02.239Z,12.23
2018-06-30T03:29:31.509Z,14.55
2018-06-30T03:32:00.699Z,12.50
2018-06-30T03:34:30.033Z,14.28
2018-06-30T03:36:59.194Z,14.38
2018-06-30T03:39:29.049Z,14.10
2018-06-30T03:41:58.329Z,13.03
2018-06-30T03:44:27.696Z,13.68
2018-06-30T03:46:56.903Z,13.98
2018-06-30T03:49:26.130Z,12.98
2018-06-30T03:51:56.194Z,14.55
2018-06-30T03:54:32.708Z,15.25
2018-06-30T03:57:01.948Z,14.35
2018-06-30T03:59:31.131Z,14.18
2018-06-30T04:02:00.342Z,13.60
2018-06-30T04:04:30.533Z,13.90
2018-06-30T04:06:59.793Z,14.25
2018-06-30T04:09:29.004Z,14.00
2018-06-30T04:11:58.255Z,14.45
2018-06-30T04:14:27.467Z,13.48
2018-06-30T04:16:56.685Z,13.00
2018-06-30T04:19:25.998Z,16.10
2018-06-30T04:21:55.275Z,14.73
2018-06-30T04:24:24.664Z,14.33
2018-06-30T04:26:54.189Z,12.80
2018-06-30T04:29:23.510Z,13.48
2018-06-30T04:31:52.737Z,12.80
2018-06-30T04:34:22.099Z,12.30
2018-06-30T04:36:51.305Z,13.15
2018-06-30T04:39:20.518Z,13.40
2018-06-30T04:41:49.788Z,13.00
2018-06-30T04:44:19.102Z,13.90
2018-06-30T04:46:48.366Z,14.33
2018-06-30T04:49:17.622Z,13.03
2018-06-30T04:51:46.916Z,13.20
2018-06-30T04:54:16.303Z,14.23
2018-06-30T04:56:45.891Z,12.55
2018-06-30T04:59:15.126Z,13.32
2018-06-30T05:01:44.340Z,14.35
2018-06-30T05:04:14.533Z,14.90
2018-06-30T05:06:43.789Z,14.65
2018-06-30T05:09:16.204Z,14.38
2018-06-30T05:11:45.445Z,14.28
2018-06-30T05:14:22.268Z,13.48
2018-06-30T05:16:56.958Z,14.45
2018-06-30T05:19:30.801Z,11.97
2018-06-30T05:22:01.004Z,12.23
2018-06-30T05:24:37.758Z,13.20
2018-06-30T05:27:10.255Z,14.07
2018-06-30T05:29:39.444Z,13.00
2018-06-30T05:32:09.042Z,13.32
2018-06-30T05:34:38.286Z,13.43
2018-06-30T05:37:07.535Z,12.10
2018-06-30T05:39:36.802Z,14.78
2018-06-30T05:42:06.922Z,13.05
2018-06-30T05:44:36.390Z,13.08
2018-06-30T05:47:06.193Z,12.78
2018-06-30T05:49:42.141Z,12.28
2018-06-30T05:52:18.115Z,13.08
2018-06-30T05:54:49.376Z,13.25
2018-06-30T05:57:18.617Z,13.15
2018-06-30T05:59:48.515Z,13.85
2018-06-30T06:02:19.746Z,14.07
2018-06-30T06:04:49.466Z,13.95
2018-06-30T06:07:18.734Z,13.25
2018-06-30T06:09:48.231Z,14.67
2018-06-30T06:12:17.436Z,14.10
2018-06-30T06:14:46.734Z,13.70
2018-06-30T06:17:17.910Z,13.53
2018-06-30T06:19:47.896Z,13.80
2018-06-30T06:22:17.766Z,14.07
2018-06-30T06:24:47.015Z,12.13
2018-06-30T06:27:16.555Z,13.33
2018-06-30T06:29:46.324Z,13.67
2018-06-30T06:32:17.556Z,12.83
2018-06-30T06:34:54.974Z,12.90
2018-06-30T06:37:29.814Z,11.47
2018-06-30T06:39:59.136Z,15.07
2018-06-30T06:42:34.625Z,14.20
2018-06-30T06:45:11.301Z,13.57
2018-06-30T06:47:40.747Z,14.80
2018-06-30T06:50:10.020Z,15.83
2018-06-30T06:52:40.078Z,16.33
2018-06-30T06:55:17.219Z,14.30
2018-06-30T06:57:48.388Z,12.97
2018-06-30T07:00:25.747Z,15.30
2018-06-30T07:02:55.126Z,13.90
2018-06-30T07:05:25.652Z,15.53
2018-06-30T07:07:55.097Z,15.33
2018-06-30T07:10:24.852Z,14.60
2018-06-30T07:12:54.056Z,14.00
2018-06-30T07:15:24.621Z,14.00
2018-06-30T07:17:53.840Z,12.10
2018-06-30T07:20:28.049Z,13.90
2018-06-30T07:22:59.469Z,14.57
2018-06-30T07:25:28.818Z,13.93
2018-06-30T07:27:58.179Z,13.30
2018-06-30T07:30:27.402Z,15.27
2018-06-30T07:32:57.825Z,14.60
2018-06-30T07:35:27.037Z,11.53
2018-06-30T07:37:56.217Z,12.60
2018-06-30T07:40:27.137Z,12.67
2018-06-30T07:42:56.393Z,12.23
2018-06-30T07:45:25.691Z,11.33
2018-06-30T07:47:55.046Z,15.33
2018-06-30T07:50:28.975Z,14.27
2018-06-30T07:52:58.091Z,13.30
2018-06-30T07:55:27.408Z,13.50
2018-06-30T07:57:56.750Z,13.07
2018-06-30T08:00:26.239Z,12.50
2018-06-30T08:02:55.795Z,12.70
2018-06-30T08:05:25.186Z,11.73
2018-06-30T08:07:56.466Z,10.57
2018-06-30T08:10:25.722Z,10.87
2018-06-30T08:12:54.969Z,9.90
2018-06-30T08:15:24.188Z,9.57
2018-06-30T08:17:53.414Z,10.70
2018-06-30T08:20:22.659Z,9.47
2018-06-30T08:22:52.001Z,11.10
2018-06-30T08:25:25.557Z,12.03
2018-06-30T08:27:57.260Z,11.40
2018-06-30T08:30:29.553Z,10.77
2018-06-30T08:32:59.402Z,9.60
2018-06-30T08:35:32.827Z,7.40
2018-06-30T08:38:06.519Z,10.40
2018-06-30T08:40:37.477Z,8.97
2018-06-30T08:43:07.323Z,8.20
2018-06-30T08:45:37.343Z,8.93
2018-06-30T08:48:06.914Z,8.90
2018-06-30T08:50:36.947Z,8.30
2018-06-30T08:53:06.544Z,8.50
2018-06-30T08:55:43.631Z,10.10
2018-06-30T08:58:12.874Z,9.00
2018-06-30T09:00:43.264Z,8.60
2018-06-30T09:03:13.454Z,9.50
2018-06-30T09:05:43.090Z,8.87
2018-06-30T09:08:12.401Z,10.63
2018-06-30T09:10:41.691Z,9.10
2018-06-30T09:13:10.930Z,10.90
2018-06-30T09:15:41.281Z,12.70
2018-06-30T09:18:10.503Z,10.90
2018-06-30T09:20:41.996Z,10.00
2018-06-30T09:23:11.535Z,9.40
2018-06-30T09:25:41.127Z,10.30
2018-06-30T09:28:11.029Z,9.00
2018-06-30T09:30:41.118Z,9.43
2018-06-30T09:33:10.301Z,8.47
2018-06-30T09:35:41.233Z,10.07
2018-06-30T09:38:10.790Z,9.40
2018-06-30T09:40:41.396Z,11.10
2018-06-30T09:43:10.694Z,9.17
2018-06-30T09:45:40.546Z,8.63
2018-06-30T09:48:10.110Z,8.87
2018-06-30T09:50:39.781Z,8.07
2018-06-30T09:53:09.352Z,10.93
2018-06-30T09:55:39.393Z,10.23
2018-06-30T09:58:08.874Z,10.40
2018-06-30T10:00:44.243Z,9.57
2018-06-30T10:03:14.204Z,8.10
2018-06-30T10:05:44.106Z,8.37
2018-06-30T10:08:13.827Z,8.30
2018-06-30T10:10:43.569Z,8.83
2018-06-30T10:13:13.163Z,7.53
2018-06-30T10:15:48.195Z,7.77
2018-06-30T10:18:19.563Z,7.97
2018-06-30T10:20:50.052Z,8.20
2018-06-30T10:23:19.648Z,8.03
2018-06-30T10:25:49.237Z,7.90
2018-06-30T10:28:19.087Z,6.83
2018-06-30T10:30:50.399Z,7.43
2018-06-30T10:33:20.272Z,7.62
2018-06-30T10:35:49.869Z,8.87
2018-06-30T10:38:20.532Z,9.37
2018-06-30T10:40:50.085Z,9.40
2018-06-30T10:43:19.856Z,6.97
2018-06-30T10:45:49.556Z,6.33
2018-06-30T10:48:19.116Z,5.87
2018-06-30T10:50:50.169Z,6.73
2018-06-30T10:53:19.637Z,6.13
2018-06-30T10:55:50.351Z,6.50
2018-06-30T10:58:19.875Z,6.10
2018-06-30T11:00:49.376Z,4.40
2018-06-30T11:03:20.030Z,6.17
2018-06-30T11:05:49.583Z,5.10
2018-06-30T11:08:19.261Z,6.00
2018-06-30T11:10:49.682Z,7.70
2018-06-30T11:13:20.618Z,6.53
2018-06-30T11:15:50.489Z,5.80
2018-06-30T11:18:19.869Z,4.67
2018-06-30T11:20:49.102Z,5.30
2018-06-30T11:23:18.325Z,5.40
2018-06-30T11:25:47.763Z,4.93
2018-06-30T11:28:16.594Z,5.40
2018-06-30T11:30:45.715Z,4.30
2018-06-30T11:33:14.910Z,5.10
2018-06-30T11:35:44.141Z,5.20
2018-06-30T11:38:13.377Z,4.83
2018-06-30T11:40:48.792Z,5.50
2018-06-30T11:43:17.866Z,4.43
2018-06-30T11:45:48.820Z,5.13
2018-06-30T11:48:18.032Z,5.10
2018-06-30T11:50:51.876Z,5.03
2018-06-30T11:53:21.219Z,5.27
2018-06-30T11:55:50.719Z,5.00
2018-06-30T11:58:19.927Z,4.80
2018-06-30T12:00:49.544Z,6.03
2018-06-30T12:03:19.871Z,6.13
2018-06-30T12:05:49.390Z,5.30
2018-06-30T12:08:19.624Z,5.00
2018-06-30T12:10:50.277Z,5.80
2018-06-30T12:13:20.386Z,6.13
2018-06-30T12:15:49.989Z,6.07
2018-06-30T12:18:19.697Z,6.13
2018-06-30T12:20:50.346Z,5.97
2018-06-30T12:23:19.756Z,4.67
2018-06-30T12:25:49.305Z,4.40
2018-06-30T12:28:19.020Z,5.60
2018-06-30T12:30:50.156Z,5.67
2018-06-30T12:33:19.844Z,5.00
2018-06-30T12:35:50.398Z,5.20
2018-06-30T12:38:19.917Z,4.80
2018-06-30T12:40:50.473Z,4.97
2018-06-30T12:43:20.114Z,4.67
2018-06-30T12:45:49.701Z,5.07
2018-06-30T12:48:19.283Z,4.63
2018-06-30T12:50:48.974Z,4.60
2018-06-30T12:53:18.725Z,4.43
2018-06-30T12:55:48.735Z,4.30
2018-06-30T12:58:18.415Z,5.50
2018-06-30T13:00:48.358Z,4.60
2018-06-30T13:03:19.194Z,5.00
2018-06-30T13:05:49.171Z,4.40
2018-06-30T13:08:19.896Z,5.57
2018-06-30T13:10:49.164Z,4.77
2018-06-30T13:13:18.389Z,4.63
2018-06-30T13:15:47.664Z,3.80
2018-06-30T13:18:19.088Z,4.70
2018-06-30T13:20:48.682Z,4.20
2018-06-30T13:23:17.914Z,3.97
2018-06-30T13:25:51.951Z,4.23
2018-06-30T13:28:22.602Z,3.77
2018-06-30T13:30:52.554Z,5.00
2018-06-30T13:33:21.726Z,4.63
2018-06-30T13:35:50.802Z,4.37
2018-06-30T13:38:21.969Z,4.10
2018-06-30T13:40:52.711Z,3.10
2018-06-30T13:43:21.909Z,3.20
2018-06-30T13:45:51.131Z,2.90
2018-06-30T13:48:20.703Z,3.80
2018-06-30T13:50:49.964Z,3.57
2018-06-30T13:53:19.337Z,3.67
2018-06-30T13:55:49.413Z,3.60
2018-06-30T13:58:18.790Z,2.90
2018-06-30T14:00:48.064Z,3.27
2018-06-30T14:03:17.168Z,4.00
2018-06-30T14:05:48.846Z,2.90
2018-06-30T14:08:18.567Z,3.00
2018-06-30T14:10:47.963Z,3.17
2018-06-30T14:13:18.479Z,3.37
2018-06-30T14:15:47.689Z,2.63
2018-06-30T14:18:16.880Z,3.07
2018-06-30T14:20:47.597Z,2.87
2018-06-30T14:23:16.980Z,3.13
2018-06-30T14:25:46.132Z,3.30
2018-06-30T14:28:15.377Z,3.23
2018-06-30T14:30:44.866Z,2.63
2018-06-30T14:33:14.410Z,3.50
2018-06-30T14:35:43.541Z,3.03
2018-06-30T14:38:12.718Z,3.43
2018-06-30T14:40:42.024Z,3.10
2018-06-30T14:43:11.323Z,3.27
2018-06-30T14:45:40.765Z,3.67
2018-06-30T14:48:10.018Z,3.30
2018-06-30T14:50:47.384Z,4.13
2018-06-30T14:53:19.908Z,3.50
2018-06-30T14:55:51.517Z,3.50
2018-06-30T14:58:21.536Z,3.13
2018-06-30T15:00:50.709Z,3.80
2018-06-30T15:03:19.961Z,3.57
2018-06-30T15:05:49.353Z,3.10
2018-06-30T15:08:18.543Z,2.90
2018-06-30T15:10:49.270Z,3.43
2018-06-30T15:13:19.336Z,2.80
2018-06-30T15:15:48.618Z,3.60
2018-06-30T15:18:18.179Z,3.40
2018-06-30T15:20:47.470Z,3.03
2018-06-30T15:23:16.663Z,3.60
2018-06-30T15:25:45.844Z,3.07
2018-06-30T15:28:15.409Z,3.22
2018-06-30T15:30:45.421Z,3.20
2018-06-30T15:33:14.961Z,3.23
2018-06-30T15:35:44.387Z,3.67
2018-06-30T15:38:13.510Z,3.20
2018-06-30T15:40:42.813Z,3.10
2018-06-30T15:43:12.013Z,3.13
2018-06-30T15:45:41.286Z,3.30
2018-06-30T15:48:10.533Z,2.50
2018-06-30T15:50:39.779Z,3.17
2018-06-30T15:53:09.057Z,3.13
2018-06-30T15:55:41.532Z,2.60
2018-06-30T15:58:11.618Z,2.97
2018-06-30T16:00:41.518Z,3.57
2018-06-30T16:03:12.146Z,2.93
2018-06-30T16:05:44.906Z,3.60
2018-06-30T16:08:13.851Z,3.50
2018-06-30T16:10:52.855Z,3.37
2018-06-30T16:13:22.047Z,3.17
2018-06-30T16:15:51.301Z,3.30
2018-06-30T16:18:20.515Z,3.80
2018-06-30T16:20:49.730Z,3.30
2018-06-30T16:23:18.984Z,3.50
2018-06-30T16:25:48.232Z,3.20
2018-06-30T16:28:17.409Z,3.27
2018-06-30T16:30:46.660Z,3.43
2018-06-30T16:33:15.994Z,3.57
2018-06-30T16:35:45.152Z,3.30
2018-06-30T16:38:14.377Z,3.80
2018-06-30T16:40:44.441Z,3.57
2018-06-30T16:43:13.691Z,4.20
2018-06-30T16:45:49.589Z,3.33
2018-06-30T16:48:21.656Z,3.23
2018-06-30T16:50:56.021Z,4.33
2018-06-30T16:53:26.131Z,3.43
2018-06-30T16:55:56.082Z,2.90
2018-06-30T16:58:25.289Z,3.57
2018-06-30T17:00:54.503Z,3.63
2018-06-30T17:03:23.673Z,4.10
2018-06-30T17:05:52.974Z,3.43
2018-06-30T17:08:23.166Z,3.60
2018-06-30T17:10:54.073Z,3.30
2018-06-30T17:13:23.901Z,3.30
2018-06-30T17:15:53.138Z,3.37
2018-06-30T17:18:22.538Z,3.20
2018-06-30T17:20:51.900Z,3.10
2018-06-30T17:23:21.143Z,3.20
2018-06-30T17:25:50.412Z,3.87
2018-06-30T17:28:19.618Z,3.27
2018-06-30T17:30:48.923Z,3.77
2018-06-30T17:33:18.163Z,3.70
2018-06-30T17:35:47.521Z,3.90
2018-06-30T17:38:16.752Z,3.80
2018-06-30T17:40:46.003Z,3.40
2018-06-30T17:43:16.589Z,4.00
2018-06-30T17:45:45.762Z,4.30
2018-06-30T17:48:14.935Z,4.57
2018-06-30T17:50:44.183Z,3.77
2018-06-30T17:53:14.036Z,3.83
2018-06-30T17:55:43.422Z,4.23
2018-06-30T17:58:12.625Z,4.50
2018-06-30T18:00:41.841Z,5.20
2018-06-30T18:03:11.093Z,5.20
2018-06-30T18:05:40.472Z,4.70
2018-06-30T18:08:10.334Z,4.63
2018-06-30T18:10:39.515Z,4.50
2018-06-30T18:13:09.015Z,4.10
2018-06-30T18:15:40.316Z,5.30
2018-06-30T18:18:09.530Z,4.30
2018-06-30T18:20:42.715Z,5.00
2018-06-30T18:23:11.907Z,4.60
2018-06-30T18:25:41.298Z,4.43
2018-06-30T18:28:10.593Z,4.77
2018-06-30T18:30:40.310Z,5.20
2018-06-30T18:33:09.510Z,4.97
2018-06-30T18:35:39.038Z,4.77
2018-06-30T18:38:08.620Z,4.87
2018-06-30T18:40:37.829Z,4.83
2018-06-30T18:43:07.857Z,4.33
2018-06-30T18:45:37.232Z,5.57
2018-06-30T18:48:06.651Z,5.53
2018-06-30T18:50:35.888Z,4.90
2018-06-30T18:53:05.186Z,5.67
2018-06-30T18:55:34.618Z,4.97
2018-06-30T18:58:04.797Z,5.00
2018-06-30T19:00:35.422Z,5.40
2018-06-30T19:03:06.135Z,4.97
2018-06-30T19:05:37.200Z,5.77
2018-06-30T19:08:06.540Z,5.47
2018-06-30T19:10:36.212Z,5.47
2018-06-30T19:13:07.092Z,4.97
2018-06-30T19:15:36.025Z,5.43
2018-06-30T19:18:06.003Z,5.73
2018-06-30T19:20:35.308Z,5.23
2018-06-30T19:23:04.842Z,4.87
2018-06-30T19:25:34.301Z,4.40
2018-06-30T19:28:03.486Z,5.50
2018-06-30T19:30:32.828Z,4.77
2018-06-30T19:33:02.703Z,5.37
2018-06-30T19:35:32.393Z,5.10
2018-06-30T19:38:01.783Z,6.40
2018-06-30T19:40:30.999Z,5.20
2018-06-30T19:43:00.364Z,5.63
2018-06-30T19:45:36.325Z,6.60
2018-06-30T19:48:06.511Z,4.87
2018-06-30T19:50:36.976Z,5.60
2018-06-30T19:53:06.244Z,5.07
2018-06-30T19:55:35.555Z,5.40
2018-06-30T19:58:05.126Z,5.90
2018-06-30T20:00:34.399Z,5.20
2018-06-30T20:03:03.728Z,5.90
2018-06-30T20:05:35.920Z,5.13
2018-06-30T20:08:06.394Z,5.40
2018-06-30T20:10:35.805Z,5.57
2018-06-30T20:13:05.042Z,5.33
2018-06-30T20:15:35.569Z,5.83
2018-06-30T20:18:04.839Z,5.07
2018-06-30T20:20:34.123Z,5.67
2018-06-30T20:23:18.788Z,5.53
2018-06-30T20:26:13.953Z,5.27
2018-06-30T20:28:50.877Z,4.63
2018-06-30T20:31:20.203Z,5.63
2018-06-30T20:33:50.592Z,6.00
2018-06-30T20:36:19.823Z,6.30
2018-06-30T20:38:49.102Z,5.83
2018-06-30T20:41:18.700Z,6.80
2018-06-30T20:43:50.802Z,10.77
2018-06-30T20:46:20.082Z,8.27
2018-06-30T20:48:49.436Z,6.40
2018-06-30T20:51:19.111Z,6.70
2018-06-30T20:53:50.552Z,6.47
2018-06-30T20:56:19.825Z,6.10
2018-06-30T20:58:53.586Z,7.23
2018-06-30T21:01:25.450Z,7.03
2018-06-30T21:03:55.559Z,11.60
2018-06-30T21:06:24.841Z,9.70
2018-06-30T21:08:54.106Z,9.03
2018-06-30T21:11:24.059Z,7.80
2018-06-30T21:13:53.381Z,7.13
2018-06-30T21:16:22.718Z,6.30
2018-06-30T21:18:52.578Z,5.90
2018-06-30T21:21:24.677Z,5.40
2018-06-30T21:23:54.973Z,4.83
2018-06-30T21:26:27.318Z,4.37
2018-06-30T21:28:57.210Z,4.30
2018-06-30T21:31:26.933Z,4.30
2018-06-30T21:33:59.337Z,4.00
2018-06-30T21:36:28.822Z,4.17
2018-06-30T21:38:59.139Z,3.90
2018-06-30T21:41:28.455Z,5.00
2018-06-30T21:43:57.769Z,3.73
2018-06-30T21:46:27.649Z,3.60
2018-06-30T21:48:57.810Z,4.67
2018-06-30T21:51:27.036Z,3.27
2018-06-30T21:53:56.352Z,2.60
2018-06-30T21:56:25.612Z,2.97
2018-06-30T21:58:55.671Z,2.87
2018-06-30T22:01:26.513Z,2.53
2018-06-30T22:03:58.014Z,3.30
2018-06-30T22:06:27.330Z,3.50
2018-06-30T22:08:56.211Z,3.10
2018-06-30T22:11:25.449Z,2.53
2018-06-30T22:13:55.807Z,2.90
2018-06-30T22:16:25.309Z,2.90
2018-06-30T22:18:54.830Z,3.17
2018-06-30T22:21:23.773Z,3.10
2018-06-30T22:23:53.112Z,3.17
2018-06-30T22:26:22.472Z,2.30
2018-06-30T22:28:51.722Z,2.20
2018-06-30T22:31:21.290Z,2.47
2018-06-30T22:33:50.716Z,2.43
2018-06-30T22:36:20.099Z,2.30
2018-06-30T22:38:49.446Z,2.70
2018-06-30T22:41:18.753Z,2.00
2018-06-30T22:43:48.194Z,1.97
2018-06-30T22:46:17.645Z,2.00
2018-06-30T22:48:47.524Z,2.10
2018-06-30T22:51:16.858Z,2.23
2018-06-30T22:53:46.158Z,2.67
2018-06-30T22:56:15.694Z,2.30
2018-06-30T22:58:45.336Z,2.67
2018-06-30T23:01:14.852Z,2.50
2018-06-30T23:03:44.764Z,2.52
2018-06-30T23:06:14.478Z,3.22
2018-06-30T23:08:56.006Z,2.77
2018-06-30T23:11:25.871Z,3.17
2018-06-30T23:13:58.740Z,3.00
2018-06-30T23:16:28.497Z,2.67
2018-06-30T23:18:57.717Z,3.83
2018-06-30T23:21:26.912Z,3.95
2018-06-30T23:23:56.119Z,2.08
2018-06-30T23:26:25.363Z,2.85
2018-06-30T23:28:54.579Z,2.05
2018-06-30T23:31:23.755Z,2.52
2018-06-30T23:33:53.168Z,3.08
2018-06-30T23:36:22.594Z,3.62
2018-06-30T23:38:52.102Z,2.77
2018-06-30T23:41:21.268Z,2.60
2018-06-30T23:43:50.832Z,2.90
2018-06-30T23:46:20.028Z,2.60
2018-06-30T23:48:49.529Z,2.60
2018-06-30T23:51:19.356Z,2.40
2018-06-30T23:53:48.595Z,2.98
2018-06-30T23:56:18.059Z,2.22
2018-06-30T23:58:48.384Z,2.52
